Time;durP1;ratioP1;P1;durP2;ratioP2;P2;SDS_P1;SDS_P2;PMS_P1;PMS_P2;Temp;Humidity;BMP_temperature;BMP_pressure;BME280_temperature;BME280_humidity;BME280_pressure;Samples;Min_cycle;Max_cycle;Signal;HPM_P1;HPM_P2
2021/06/02 00:00:42;;;;;;;;;8.00;7.00;;;;;22.36;48.05;100750.63;5039777;28;45398;-74
2021/06/02 00:03:12;;;;;;;;;7.25;6.75;;;;;22.34;48.20;100750.78;5034318;28;45535;-75
2021/06/02 00:05:40;;;;;;;;;8.00;7.00;;;;;22.32;48.72;100754.56;5036864;28;45352;-74
2021/06/02 00:08:08;;;;;;;;;7.00;7.00;;;;;22.30;49.30;100753.88;5037273;28;48598;-74
2021/06/02 00:10:34;;;;;;;;;9.50;7.00;;;;;22.26;49.13;100745.25;5039071;28;45354;-74
2021/06/02 00:13:01;;;;;;;;;7.00;6.00;;;;;22.19;49.38;100743.31;5035442;28;45608;-74
2021/06/02 00:15:26;;;;;;;;;8.50;7.25;;;;;22.14;49.56;100731.19;5039986;28;46368;-74
2021/06/02 00:17:52;;;;;;;;;7.25;7.25;;;;;22.17;50.09;100737.22;5037614;28;45505;-74
2021/06/02 00:20:17;;;;;;;;;7.00;6.75;;;;;22.11;50.13;100742.16;5036121;28;45532;-74
2021/06/02 00:22:44;;;;;;;;;10.50;9.50;;;;;22.08;49.65;100742.41;5038765;28;45529;-74
2021/06/02 00:25:11;;;;;;;;;8.00;8.00;;;;;22.04;49.57;100741.00;5045223;28;46205;-74
2021/06/02 00:27:39;;;;;;;;;8.75;8.00;;;;;21.99;49.29;100745.94;5041778;28;45753;-74
2021/06/02 00:30:07;;;;;;;;;8.25;6.50;;;;;21.97;49.76;100742.53;5030846;28;45753;-74
2021/06/02 00:32:33;;;;;;;;;6.00;6.00;;;;;21.96;49.81;100743.50;5033820;28;45617;-74
2021/06/02 00:35:01;;;;;;;;;6.75;6.75;;;;;21.93;49.59;100745.66;5034706;28;45935;-75
2021/06/02 00:37:28;;;;;;;;;7.25;7.25;;;;;21.83;49.71;100733.09;5034075;28;45228;-75
2021/06/02 00:39:55;;;;;;;;;7.50;7.00;;;;;21.91;49.85;100758.28;5035065;28;45428;-75
2021/06/02 00:42:22;;;;;;;;;11.50;8.00;;;;;21.88;50.35;100765.63;5034061;28;45621;-75
2021/06/02 00:44:50;;;;;;;;;7.75;6.75;;;;;21.85;49.60;100757.88;5034418;28;46480;-76
2021/06/02 00:47:17;;;;;;;;;7.25;7.00;;;;;21.82;50.15;100749.25;5034038;28;45893;-75
2021/06/02 00:49:45;;;;;;;;;7.00;6.00;;;;;21.78;49.44;100746.03;5037176;28;45438;-75
2021/06/02 00:52:10;;;;;;;;;8.00;7.25;;;;;21.58;49.86;100731.78;5033837;28;45396;-75
2021/06/02 00:54:37;;;;;;;;;6.00;6.00;;;;;21.72;49.65;100746.59;5034199;28;46248;-75
2021/06/02 00:57:04;;;;;;;;;9.75;8.00;;;;;21.69;50.16;100752.19;5034958;28;45465;-75
2021/06/02 00:59:29;;;;;;;;;5.75;5.75;;;;;21.66;50.26;100743.59;5033794;28;45500;-75
2021/06/02 01:01:56;;;;;;;;;10.00;6.75;;;;;21.62;50.42;100743.88;5034951;28;45575;-75
2021/06/02 01:04:24;;;;;;;;;5.00;5.00;;;;;21.55;50.27;100736.53;5034037;28;45356;-75
2021/06/02 01:06:50;;;;;;;;;10.00;8.50;;;;;21.58;50.16;100747.81;5033858;28;45375;-75
2021/06/02 01:09:19;;;;;;;;;7.00;7.00;;;;;21.56;50.75;100749.78;5032022;28;45498;-75
2021/06/02 01:11:48;;;;;;;;;8.50;7.75;;;;;21.54;51.05;100749.06;5033520;28;45489;-76
2021/06/02 01:14:14;;;;;;;;;9.00;6.50;;;;;21.52;50.76;100747.53;5034089;28;48078;-76
2021/06/02 01:16:39;;;;;;;;;8.00;7.00;;;;;21.49;50.78;100745.94;5035431;28;45391;-75
2021/06/02 01:19:10;;;;;;;;;9.25;6.25;;;;;21.39;51.31;100734.38;5033848;28;45758;-75
2021/06/02 01:21:46;;;;;;;;;10.00;8.75;;;;;21.43;51.58;100741.16;5033714;28;45626;-76
2021/06/02 01:24:12;;;;;;;;;7.75;6.00;;;;;21.37;51.30;100739.03;5033431;28;45435;-75
2021/06/02 01:26:40;;;;;;;;;8.00;8.00;;;;;21.35;51.59;100741.84;5033455;28;46216;-76
2021/06/02 01:29:05;;;;;;;;;7.00;7.00;;;;;21.26;51.72;100728.41;5032019;28;45466;-75
2021/06/02 01:31:42;;;;;;;;;7.00;6.00;;;;;21.31;51.54;100739.56;5034581;28;45533;-75
2021/06/02 01:34:32;;;;;;;;;8.50;7.00;;;;;21.28;51.82;100745.13;5031547;28;46632;-75
2021/06/02 01:37:02;;;;;;;;;6.50;6.25;;;;;21.26;51.45;100739.09;5033551;28;45708;-75
2021/06/02 01:39:44;;;;;;;;;7.00;7.00;;;;;21.23;51.69;100747.38;5034249;28;45489;-75
2021/06/02 01:42:20;;;;;;;;;7.50;6.00;;;;;21.21;51.90;100742.16;5025266;28;45454;-75
2021/06/02 01:45:09;;;;;;;;;6.50;6.50;;;;;21.18;52.10;100736.22;5032573;28;46260;-76
2021/06/02 01:47:54;;;;;;;;;8.50;6.50;;;;;21.14;52.06;100738.31;5045182;28;45662;-75
2021/06/02 01:50:56;;;;;;;;;8.50;7.00;;;;;21.10;52.19;100747.59;5049227;28;45822;-75
2021/06/02 01:53:46;;;;;;;;;8.25;8.00;;;;;21.07;52.22;100745.19;5037066;28;45578;-73
2021/06/02 01:56:32;;;;;;;;;7.25;7.25;;;;;21.02;52.48;100740.25;5049252;28;45454;-74
2021/06/02 01:59:09;;;;;;;;;7.25;7.25;;;;;20.99;52.83;100745.88;5036251;28;45430;-74
2021/06/02 02:01:45;;;;;;;;;5.75;4.00;;;;;20.97;52.61;100744.28;5027386;28;45517;-74
2021/06/02 02:04:51;;;;;;;;;8.00;7.25;;;;;20.95;52.67;100748.94;5037214;28;45548;-75
2021/06/02 02:07:36;;;;;;;;;9.50;8.75;;;;;20.93;53.08;100751.72;5041082;28;46151;-75
2021/06/02 02:10:34;;;;;;;;;10.00;8.00;;;;;20.92;52.94;100752.69;5027354;28;45759;-74
2021/06/02 02:13:07;;;;;;;;;7.50;6.00;;;;;20.87;53.15;100746.06;5039998;28;45458;-74
2021/06/02 02:15:36;;;;;;;;;11.50;7.75;;;;;20.82;53.35;100746.44;5036392;28;45594;-74
2021/06/02 02:18:21;;;;;;;;;9.75;7.50;;;;;20.78;53.50;100747.72;5038695;28;45510;-75
2021/06/02 02:21:07;;;;;;;;;7.75;6.75;;;;;20.68;53.60;100742.31;5018521;28;45792;-74
2021/06/02 02:23:42;;;;;;;;;10.25;8.00;;;;;20.74;53.89;100740.94;5038948;28;45898;-74
2021/06/02 02:26:10;;;;;;;;;8.25;7.25;;;;;20.69;54.43;100746.66;5030689;28;45462;-74
2021/06/02 02:29:08;;;;;;;;;7.00;7.00;;;;;20.65;54.93;100750.56;5033250;28;45975;-74
2021/06/02 02:31:59;;;;;;;;;9.25;7.25;;;;;20.59;54.70;100749.28;5034669;28;45291;-74
2021/06/02 02:34:34;;;;;;;;;7.75;7.00;;;;;20.57;54.90;100753.91;5032905;28;45532;-75
2021/06/02 02:37:10;;;;;;;;;10.75;7.00;;;;;20.54;55.13;100756.81;5029544;28;45534;-74
2021/06/02 02:40:00;;;;;;;;;8.50;8.00;;;;;20.52;55.38;100764.13;5032562;28;46101;-74
2021/06/02 02:42:40;;;;;;;;;9.25;8.25;;;;;20.48;55.61;100754.69;5030361;28;45582;-75
2021/06/02 02:45:23;;;;;;;;;9.75;9.50;;;;;20.39;55.70;100754.56;5029512;28;45346;-74
2021/06/02 02:47:57;;;;;;;;;8.50;8.50;;;;;20.40;55.69;100761.59;5032408;28;45426;-75
2021/06/02 02:50:34;;;;;;;;;11.50;10.25;;;;;20.37;55.42;100772.53;5032529;28;46367;-74
2021/06/02 02:53:14;;;;;;;;;8.00;7.50;;;;;20.34;55.61;100761.13;5030772;28;46879;-75
2021/06/02 02:55:40;;;;;;;;;11.75;10.25;;;;;20.26;56.05;100752.09;5033275;28;45821;-74
2021/06/02 02:58:23;;;;;;;;;11.25;8.00;;;;;20.24;55.87;100751.34;5032293;28;46222;-74
2021/06/02 03:01:15;;;;;;;;;14.00;10.00;;;;;20.25;56.10;100751.22;5032181;28;45515;-74
2021/06/02 03:03:48;;;;;;;;;13.00;11.50;;;;;20.25;55.83;100753.03;5031967;28;45785;-75
2021/06/02 03:06:21;;;;;;;;;9.00;9.00;;;;;20.20;55.61;100747.22;5029127;28;45397;-74
2021/06/02 03:09:04;;;;;;;;;10.00;10.00;;;;;20.25;55.79;100761.88;5028936;28;46841;-75
2021/06/02 03:12:07;;;;;;;;;12.25;9.00;;;;;20.23;55.90;100760.34;5031369;28;48352;-74
2021/06/02 03:14:59;;;;;;;;;8.50;7.50;;;;;20.11;55.93;100742.69;5030978;28;45528;-74
2021/06/02 03:17:45;;;;;;;;;8.00;8.00;;;;;20.15;56.20;100752.09;5020277;28;45446;-74
2021/06/02 03:20:29;;;;;;;;;12.25;9.50;;;;;20.12;55.57;100763.88;5030806;28;45491;-74
2021/06/02 03:23:13;;;;;;;;;9.25;8.00;;;;;20.11;56.24;100774.69;5032296;28;45622;-74
2021/06/02 03:25:41;;;;;;;;;11.00;10.50;;;;;20.09;55.89;100772.13;5032180;28;45404;-75
2021/06/02 03:28:33;;;;;;;;;9.50;8.75;;;;;20.02;56.02;100745.13;5029890;28;45462;-74
2021/06/02 03:31:35;;;;;;;;;12.75;11.75;;;;;20.00;56.04;100749.75;5035137;28;45455;-74
2021/06/02 03:34:22;;;;;;;;;10.75;9.75;;;;;20.03;55.94;100749.47;5020055;28;45508;-74
2021/06/02 03:37:09;;;;;;;;;8.00;8.00;;;;;20.01;56.10;100756.78;5020909;28;45682;-74
2021/06/02 03:39:50;;;;;;;;;10.50;9.00;;;;;19.98;56.40;100754.34;5025294;28;45646;-75
2021/06/02 03:42:37;;;;;;;;;10.75;8.50;;;;;19.93;55.98;100756.53;5017975;28;45357;-75
2021/06/02 03:45:23;;;;;;;;;10.75;9.50;;;;;19.93;56.32;100759.22;5022436;28;47680;-74
2021/06/02 03:47:58;;;;;;;;;7.50;7.00;;;;;19.92;56.22;100754.00;5027288;28;45473;-75
2021/06/02 03:50:30;;;;;;;;;13.00;12.00;;;;;19.89;56.11;100752.44;5013746;28;45495;-75
2021/06/02 03:53:18;;;;;;;;;9.75;9.50;;;;;19.88;56.42;100756.06;5023130;28;45356;-74
2021/06/02 03:55:55;;;;;;;;;12.50;9.75;;;;;19.86;56.70;100766.03;5029634;28;45499;-74
2021/06/02 03:58:59;;;;;;;;;8.00;8.00;;;;;19.86;56.58;100763.34;5017871;28;45561;-74
2021/06/02 04:01:27;;;;;;;;;11.00;9.00;;;;;19.85;56.34;100759.00;5021907;28;45447;-74
2021/06/02 04:04:19;;;;;;;;;9.00;7.75;;;;;19.86;56.24;100763.34;5021732;28;45777;-75
2021/06/02 04:07:01;;;;;;;;;11.50;9.00;;;;;19.85;56.46;100764.34;5017320;28;46077;-75
2021/06/02 04:09:30;;;;;;;;;10.00;7.75;;;;;19.84;56.63;100767.97;5011664;28;45606;-74
2021/06/02 04:11:59;;;;;;;;;10.50;10.25;;;;;19.85;56.67;100769.66;5034884;28;45971;-75
2021/06/02 04:14:35;;;;;;;;;11.50;10.75;;;;;19.79;56.67;100760.34;5032549;28;45882;-74
2021/06/02 04:17:01;;;;;;;;;11.50;10.25;;;;;19.78;56.51;100757.78;5032756;28;45651;-74
2021/06/02 04:19:32;;;;;;;;;11.75;8.75;;;;;19.81;56.50;100766.41;5035556;28;45431;-74
2021/06/02 04:22:06;;;;;;;;;12.00;10.50;;;;;19.77;57.02;100753.44;5034032;28;45407;-74
2021/06/02 04:24:33;;;;;;;;;10.50;10.00;;;;;19.79;56.50;100760.34;5033956;28;45405;-74
2021/06/02 04:27:00;;;;;;;;;13.00;9.00;;;;;19.85;56.70;100763.50;5034057;28;45588;-74
2021/06/02 04:29:27;;;;;;;;;11.00;11.00;;;;;19.76;56.72;100765.06;5028875;28;46848;-75
2021/06/02 04:32:01;;;;;;;;;10.25;8.75;;;;;19.79;57.04;100765.69;5033901;28;45513;-75
2021/06/02 04:34:28;;;;;;;;;14.50;12.00;;;;;19.85;57.11;100759.00;5033415;28;46915;-75
2021/06/02 04:36:56;;;;;;;;;12.50;12.50;;;;;19.83;57.47;100754.75;5033486;28;45803;-74
2021/06/02 04:39:23;;;;;;;;;11.75;10.75;;;;;19.84;57.14;100754.66;5034101;28;46222;-74
2021/06/02 04:41:53;;;;;;;;;12.75;11.00;;;;;19.85;56.79;100769.66;5035760;28;45445;-74
2021/06/02 04:44:22;;;;;;;;;14.25;10.50;;;;;19.80;56.87;100771.88;5034307;28;45599;-74
2021/06/02 04:46:48;;;;;;;;;8.75;7.50;;;;;19.83;56.93;100754.75;5035445;28;46306;-76
2021/06/02 04:49:14;;;;;;;;;9.50;9.50;;;;;19.86;57.27;100755.34;5034483;28;45481;-75
2021/06/02 04:51:42;;;;;;;;;13.50;13.25;;;;;19.95;57.35;100775.13;5031938;28;45532;-75
2021/06/02 04:54:42;;;;;;;;;12.00;12.00;;;;;19.95;57.38;100773.28;5030414;28;45612;-75
2021/06/02 04:57:37;;;;;;;;;12.50;12.50;;;;;20.08;57.58;100786.47;5033036;28;45568;-74
2021/06/02 05:00:17;;;;;;;;;14.50;10.75;;;;;20.08;57.51;100776.63;5034025;28;45529;-75
2021/06/02 05:03:15;;;;;;;;;13.25;11.00;;;;;20.10;57.31;100783.66;5034206;28;45501;-74
2021/06/02 05:06:01;;;;;;;;;12.75;12.25;;;;;20.20;57.51;100792.59;5027075;28;45406;-73
2021/06/02 05:08:51;;;;;;;;;10.00;10.00;;;;;20.24;57.64;100794.88;5034481;28;45695;-75
2021/06/02 05:11:36;;;;;;;;;12.50;12.50;;;;;20.27;57.30;100791.13;5034976;28;45888;-75
2021/06/02 05:14:38;;;;;;;;;17.75;13.25;;;;;20.27;57.57;100796.47;5031389;28;45307;-75
2021/06/02 05:17:09;;;;;;;;;15.25;11.75;;;;;20.27;57.72;100799.16;5033030;28;45375;-74
2021/06/02 05:22:52;;;;;;;;;11.50;11.00;;;;;20.28;58.28;100798.16;5032668;28;45470;-74
2021/06/02 05:25:45;;;;;;;;;13.00;11.50;;;;;20.28;58.35;100798.16;5032090;28;45844;-74
2021/06/02 05:28:56;;;;;;;;;13.00;12.00;;;;;20.32;58.61;100815.63;5032060;28;45775;-74
2021/06/02 05:31:46;;;;;;;;;17.75;14.75;;;;;20.37;58.61;100810.75;5033241;28;46344;-76
2021/06/02 05:34:21;;;;;;;;;13.00;13.00;;;;;20.44;58.78;100817.25;5034202;28;45561;-75
2021/06/02 05:37:20;;;;;;;;;16.50;13.50;;;;;20.57;58.83;100807.31;5033005;28;45447;-75
2021/06/02 05:40:08;;;;;;;;;13.25;12.50;;;;;20.90;58.91;100792.06;5033619;28;45851;-75
2021/06/02 05:43:04;;;;;;;;;13.50;12.75;;;;;21.50;57.51;100808.28;5027875;28;46086;-74
2021/06/02 05:46:03;;;;;;;;;15.25;11.25;;;;;21.98;56.99;100819.16;5028041;28;45769;-76
2021/06/02 05:48:53;;;;;;;;;12.75;12.75;;;;;22.25;56.62;100812.34;5029563;28;45401;-76
2021/06/02 05:51:52;;;;;;;;;12.00;12.00;;;;;22.55;56.03;100819.38;5032692;28;45516;-75
2021/06/02 05:54:39;;;;;;;;;11.50;10.00;;;;;22.73;55.93;100825.72;5032285;28;46154;-75
2021/06/02 05:57:36;;;;;;;;;15.75;11.75;;;;;22.87;55.33;100813.75;5033919;28;45675;-76
2021/06/02 06:00:11;;;;;;;;;11.25;10.00;;;;;22.94;55.42;100840.84;5033671;28;45522;-75
2021/06/02 06:02:48;;;;;;;;;12.25;9.25;;;;;22.82;55.70;100827.56;5033194;28;45509;-75
2021/06/02 06:05:24;;;;;;;;;14.75;12.75;;;;;22.75;55.66;100831.78;5032833;28;45700;-77
2021/06/02 06:08:12;;;;;;;;;15.25;13.00;;;;;22.65;55.99;100830.94;5035285;28;45551;-76
2021/06/02 06:11:20;;;;;;;;;17.25;12.75;;;;;22.54;56.27;100831.09;5034056;28;45455;-76
2021/06/02 06:14:10;;;;;;;;;15.50;11.50;;;;;22.51;56.32;100824.19;5030958;28;45415;-77
2021/06/02 06:17:13;;;;;;;;;11.00;11.00;;;;;22.52;56.48;100819.69;5034837;28;46633;-76
2021/06/02 06:19:44;;;;;;;;;11.75;11.75;;;;;22.52;56.81;100828.56;5043747;28;45716;-76
2021/06/02 06:22:31;;;;;;;;;13.50;12.25;;;;;22.54;57.19;100825.72;5035100;28;45583;-76
2021/06/02 06:25:02;;;;;;;;;13.00;12.00;;;;;22.55;57.42;100830.09;5033777;28;45407;-76
2021/06/02 06:27:49;;;;;;;;;16.00;13.25;;;;;22.61;56.55;100835.75;5031874;28;45616;-76
2021/06/02 06:30:19;;;;;;;;;14.25;13.50;;;;;22.61;56.94;100829.56;5031709;28;45375;-75
2021/06/02 06:32:46;;;;;;;;;13.00;12.00;;;;;22.60;57.22;100834.06;5020628;28;45808;-75
2021/06/02 06:35:15;;;;;;;;;15.00;13.75;;;;;22.63;57.42;100833.75;5033537;28;45416;-76
2021/06/02 06:37:45;;;;;;;;;16.00;12.75;;;;;22.65;57.20;100822.91;5030828;28;46272;-75
2021/06/02 06:40:14;;;;;;;;;12.50;12.50;;;;;22.72;57.35;100826.72;5032144;28;45792;-76
2021/06/02 06:42:45;;;;;;;;;14.50;11.00;;;;;22.77;57.78;100824.47;5033048;28;45450;-76
2021/06/02 06:45:10;;;;;;;;;13.25;13.25;;;;;22.80;57.67;100829.50;5033479;28;45481;-76
2021/06/02 06:47:37;;;;;;;;;15.50;13.50;;;;;22.79;57.42;100827.00;5033589;28;46150;-76
2021/06/02 06:50:07;;;;;;;;;14.50;11.75;;;;;22.82;57.75;100840.13;5032979;28;45706;-76
2021/06/02 06:52:33;;;;;;;;;15.00;14.25;;;;;22.77;57.72;100820.94;5034422;28;45427;-75
2021/06/02 06:55:01;;;;;;;;;12.50;11.25;;;;;22.83;57.77;100828.41;5030834;28;47013;-76
2021/06/02 06:57:27;;;;;;;;;14.00;13.00;;;;;22.87;57.60;100832.50;5045362;28;47536;-75
2021/06/02 06:59:54;;;;;;;;;11.50;11.50;;;;;23.02;57.78;100843.63;5019750;28;45569;-76
2021/06/02 07:02:20;;;;;;;;;11.00;10.00;;;;;23.07;57.57;100823.44;5032296;28;45886;-76
2021/06/02 07:04:47;;;;;;;;;12.75;10.75;;;;;23.37;57.54;100818.84;5033812;28;45409;-76
2021/06/02 07:07:14;;;;;;;;;16.75;14.50;;;;;23.72;56.71;100836.13;5030358;28;46177;-76
2021/06/02 07:09:39;;;;;;;;;12.00;12.00;;;;;23.93;56.12;100837.53;5031203;28;45837;-76
2021/06/02 07:12:07;;;;;;;;;15.50;14.25;;;;;23.99;55.81;100848.69;5033205;28;45436;-76
2021/06/02 07:14:36;;;;;;;;;16.25;14.50;;;;;24.28;56.30;100840.44;5033223;28;45481;-76
2021/06/02 07:17:04;;;;;;;;;13.50;13.00;;;;;24.88;54.59;100835.31;5030991;28;47571;-75
2021/06/02 07:19:36;;;;;;;;;14.75;14.00;;;;;24.95;54.22;100841.72;5033813;28;45386;-75
2021/06/02 07:22:02;;;;;;;;;14.25;12.50;;;;;24.83;53.93;100845.69;5032850;28;45402;-76
2021/06/02 07:24:29;;;;;;;;;13.50;12.25;;;;;24.81;53.98;100842.31;5032685;28;45325;-76
2021/06/02 07:26:54;;;;;;;;;12.00;12.00;;;;;25.14;54.76;100836.19;5032352;28;45398;-75
2021/06/02 07:29:19;;;;;;;;;16.00;13.25;;;;;25.82;52.65;100840.78;5032825;28;45552;-76
2021/06/02 07:31:45;;;;;;;;;16.00;12.75;;;;;26.27;52.48;100853.06;5032816;28;45410;-76
2021/06/02 07:34:10;;;;;;;;;17.25;13.75;;;;;26.57;51.22;100846.22;5032708;28;45379;-76
2021/06/02 07:36:36;;;;;;;;;16.00;13.50;;;;;26.70;51.13;100840.34;5032618;28;45829;-75
2021/06/02 07:39:03;;;;;;;;;13.25;12.25;;;;;26.87;50.83;100839.31;5031963;28;45488;-75
2021/06/02 07:41:29;;;;;;;;;16.00;13.50;;;;;27.45;50.45;100851.72;5032960;28;45258;-76
2021/06/02 07:43:54;;;;;;;;;13.00;13.00;;;;;28.14;49.12;100846.59;5035231;28;45244;-75
2021/06/02 07:46:19;;;;;;;;;15.00;15.00;;;;;28.66;47.42;100850.47;5032182;28;46122;-75
2021/06/02 07:48:44;;;;;;;;;17.25;14.75;;;;;29.66;46.55;100852.97;5031038;28;45306;-75
2021/06/02 07:51:10;;;;;;;;;14.25;13.25;;;;;30.34;45.33;100849.88;5032373;28;45402;-76
2021/06/02 07:53:35;;;;;;;;;13.50;12.00;;;;;31.56;41.54;100843.38;5032633;28;45424;-76
2021/06/02 07:56:01;;;;;;;;;13.75;12.00;;;;;32.61;41.69;100845.66;5033976;28;46086;-76
2021/06/02 07:58:26;;;;;;;;;13.00;13.00;;;;;33.94;40.41;100846.34;5031928;28;45483;-76
2021/06/02 08:00:51;;;;;;;;;12.75;11.75;;;;;35.40;39.51;100856.22;5028561;28;45404;-75
2021/06/02 08:03:17;;;;;;;;;13.25;11.50;;;;;37.16;36.46;100856.94;5031323;28;45375;-75
2021/06/02 08:05:42;;;;;;;;;10.00;9.00;;;;;38.28;34.08;100847.56;5029720;28;46000;-76
2021/06/02 08:08:08;;;;;;;;;14.00;12.00;;;;;38.91;31.59;100862.97;5029342;28;49976;-73
2021/06/02 08:10:33;;;;;;;;;15.75;12.25;;;;;37.84;32.19;100867.28;5034017;28;45393;-73
2021/06/02 08:13:01;;;;;;;;;12.75;11.25;;;;;36.92;32.64;100869.00;5029294;28;45552;-73
2021/06/02 08:15:27;;;;;;;;;13.50;12.75;;;;;36.63;33.36;100879.72;5021551;28;46292;-73
2021/06/02 08:17:52;;;;;;;;;9.75;9.75;;;;;37.39;33.27;100877.25;5034220;28;45433;-74
2021/06/02 08:20:17;;;;;;;;;12.00;10.75;;;;;39.19;31.76;100873.03;5035854;28;45941;-73
2021/06/02 08:22:43;;;;;;;;;10.75;10.75;;;;;40.89;29.62;100878.34;5037704;28;45520;-73
2021/06/02 08:25:13;;;;;;;;;12.00;10.75;;;;;41.86;27.89;100886.44;5035405;28;46007;-73
2021/06/02 08:27:38;;;;;;;;;12.00;10.25;;;;;42.66;27.63;100882.25;5033948;28;45622;-73
2021/06/02 08:30:06;;;;;;;;;13.25;13.00;;;;;43.59;26.34;100882.94;5035902;28;45549;-72
2021/06/02 08:32:32;;;;;;;;;12.00;10.75;;;;;43.79;24.43;100891.16;5033407;28;45490;-74
2021/06/02 08:34:57;;;;;;;;;11.50;11.25;;;;;42.74;25.37;100905.72;5033735;28;45284;-73
2021/06/02 08:37:22;;;;;;;;;11.00;10.00;;;;;43.14;25.38;100888.31;5033085;28;54014;-73
2021/06/02 08:39:48;;;;;;;;;12.25;10.50;;;;;44.36;24.04;100900.03;5035594;28;45444;-72
2021/06/02 08:42:14;;;;;;;;;12.75;11.75;;;;;45.24;23.45;100902.66;5035535;28;45488;-73
2021/06/02 08:44:41;;;;;;;;;13.25;11.75;;;;;46.13;21.92;100904.91;5034741;28;45379;-73
2021/06/02 08:47:08;;;;;;;;;11.75;11.75;;;;;46.88;21.82;100908.78;5036043;28;45514;-74
2021/06/02 08:49:34;;;;;;;;;12.75;12.50;;;;;47.72;20.89;100895.53;5032789;28;45356;-73
2021/06/02 08:52:07;;;;;;;;;14.00;14.00;;;;;48.20;20.61;100908.97;5027404;28;45517;-73
2021/06/02 08:54:33;;;;;;;;;12.25;12.25;;;;;48.33;20.41;100907.28;5035117;28;45952;-73
2021/06/02 08:57:02;;;;;;;;;13.25;12.25;;;;;48.72;20.63;100906.66;5035122;28;45543;-73
2021/06/02 08:59:28;;;;;;;;;10.25;10.25;;;;;49.48;19.87;100916.91;5021360;28;45438;-73
2021/06/02 09:01:53;;;;;;;;;10.75;10.75;;;;;50.37;19.33;100908.03;5037071;28;45415;-73
2021/06/02 09:04:19;;;;;;;;;11.25;10.00;;;;;51.27;18.92;100910.06;5035507;28;47181;-73
2021/06/02 09:06:48;;;;;;;;;11.00;10.25;;;;;51.97;17.96;100912.47;5033246;28;45474;-73
2021/06/02 09:09:16;;;;;;;;;12.00;12.00;;;;;52.64;16.53;100911.44;5034833;28;45476;-73
2021/06/02 09:11:52;;;;;;;;;11.75;10.75;;;;;52.66;16.68;100909.09;5034873;28;45589;-73
2021/06/02 09:14:26;;;;;;;;;3.00;2.00;;;;;52.43;16.46;100906.66;5034634;28;46309;-73
2021/06/02 09:16:59;;;;;;;;;12.50;11.75;;;;;52.42;16.06;100907.84;5037383;28;45511;-73
2021/06/02 09:19:40;;;;;;;;;13.00;11.75;;;;;52.30;16.16;100904.97;5036323;28;45414;-73
2021/06/02 09:22:14;;;;;;;;;9.75;8.75;;;;;52.53;16.80;100901.81;5034608;28;45462;-73
2021/06/02 09:24:59;;;;;;;;;10.75;10.50;;;;;52.64;16.11;100903.03;5034016;28;46236;-73
2021/06/02 09:27:49;;;;;;;;;11.00;11.00;;;;;52.83;16.26;100916.50;5033407;28;45574;-74
2021/06/02 09:30:24;;;;;;;;;11.75;11.75;;;;;52.10;16.26;100905.75;5034130;28;45450;-73
2021/06/02 09:33:00;;;;;;;;;12.75;10.50;;;;;51.19;16.74;100915.69;5034217;28;45598;-73
2021/06/02 09:35:36;;;;;;;;;12.75;11.50;;;;;49.94;17.30;100902.41;5022788;28;45374;-73
2021/06/02 09:38:01;;;;;;;;;11.00;10.50;;;;;48.83;18.79;100904.41;5032863;28;45387;-73
2021/06/02 09:40:35;;;;;;;;;9.75;9.00;;;;;48.04;19.15;100907.69;5035596;28;45489;-73
2021/06/02 09:43:01;;;;;;;;;9.75;9.75;;;;;47.49;19.77;100907.69;5034384;28;45443;-74
2021/06/02 09:45:27;;;;;;;;;12.75;11.25;;;;;47.04;20.29;100911.03;5034336;28;46197;-73
2021/06/02 09:47:58;;;;;;;;;10.75;10.75;;;;;46.17;20.47;100894.06;5033244;28;45307;-73
2021/06/02 09:50:27;;;;;;;;;13.25;13.25;;;;;45.18;20.98;100909.38;5034111;28;45373;-73
2021/06/02 09:52:54;;;;;;;;;10.00;9.00;;;;;44.30;21.13;100910.31;5036397;28;45292;-73
2021/06/02 09:55:19;;;;;;;;;8.25;8.00;;;;;43.66;22.28;100911.16;5033947;28;45987;-73
2021/06/02 09:57:46;;;;;;;;;8.50;8.50;;;;;43.11;23.20;100905.44;5033665;28;45648;-73
2021/06/02 10:00:14;;;;;;;;;9.75;9.75;;;;;42.69;22.81;100922.28;5034591;28;45453;-73
2021/06/02 10:02:40;;;;;;;;;10.50;10.00;;;;;42.03;23.78;100917.44;5032216;28;45533;-73
2021/06/02 10:05:11;;;;;;;;;12.00;12.00;;;;;41.51;24.94;100910.00;5030003;28;47317;-73
2021/06/02 10:07:45;;;;;;;;;13.25;10.00;;;;;41.55;25.33;100913.03;5035846;28;45533;-73
2021/06/02 10:10:12;;;;;;;;;10.50;10.50;;;;;41.22;25.30;100917.75;5034085;28;45418;-74
2021/06/02 10:12:39;;;;;;;;;12.00;11.00;;;;;40.26;25.55;100918.50;5033910;28;45549;-73
2021/06/02 10:15:06;;;;;;;;;11.00;11.00;;;;;39.14;26.46;100904.00;5031990;28;45375;-73
2021/06/02 10:17:37;;;;;;;;;9.75;9.50;;;;;38.12;27.77;100899.41;5033741;28;45523;-74
2021/06/02 10:20:12;;;;;;;;;11.75;10.25;;;;;37.71;28.47;100916.91;5034240;28;45460;-72
2021/06/02 10:22:39;;;;;;;;;10.50;10.50;;;;;37.37;28.41;100918.59;5034017;28;45753;-74
2021/06/02 10:25:07;;;;;;;;;12.50;11.00;;;;;37.15;29.48;100920.22;5030543;28;47195;-73
2021/06/02 10:27:33;;;;;;;;;12.00;9.50;;;;;36.82;30.34;100911.47;5033713;28;45493;-73
2021/06/02 10:29:58;;;;;;;;;11.00;11.00;;;;;36.78;30.39;100912.16;5033867;28;45375;-73
2021/06/02 10:32:25;;;;;;;;;11.50;9.50;;;;;36.89;30.37;100924.22;5033496;28;45478;-73
2021/06/02 10:34:52;;;;;;;;;12.75;10.75;;;;;36.70;30.14;100923.44;5035020;28;45308;-73
2021/06/02 10:37:21;;;;;;;;;11.75;10.00;;;;;36.65;30.20;100918.69;5030761;28;45346;-73
2021/06/02 10:39:55;;;;;;;;;13.75;12.50;;;;;36.68;30.35;100914.63;5033090;28;45311;-73
2021/06/02 10:42:47;;;;;;;;;11.75;10.75;;;;;36.58;31.26;100909.72;5033419;28;45373;-73
2021/06/02 10:45:16;;;;;;;;;10.75;10.75;;;;;36.66;30.45;100928.56;5033148;28;46178;-73
2021/06/02 10:47:41;;;;;;;;;10.00;8.50;;;;;36.32;31.30;100925.41;5032814;28;45441;-73
2021/06/02 10:50:26;;;;;;;;;13.50;12.00;;;;;36.00;32.09;100924.78;5034643;28;45416;-73
2021/06/02 10:52:52;;;;;;;;;12.50;11.75;;;;;35.74;32.48;100912.22;5035901;28;45406;-73
2021/06/02 10:55:34;;;;;;;;;14.50;12.00;;;;;35.54;32.86;100930.72;5031255;28;47490;-73
2021/06/02 10:58:21;;;;;;;;;12.00;12.00;;;;;35.38;32.84;100928.56;5033230;28;45883;-73
2021/06/02 11:00:50;;;;;;;;;12.50;11.50;;;;;35.33;33.16;100925.66;5031685;28;45476;-73
2021/06/02 11:03:28;;;;;;;;;13.50;13.50;;;;;35.13;33.65;100929.38;5033040;28;45454;-73
2021/06/02 11:06:06;;;;;;;;;12.25;11.75;;;;;35.12;33.03;100941.38;5032476;28;45390;-73
2021/06/02 11:08:49;;;;;;;;;12.25;10.25;;;;;35.13;33.61;100936.75;5018127;28;45545;-73
2021/06/02 11:11:40;;;;;;;;;12.50;11.00;;;;;35.15;32.96;100940.13;5032791;28;45357;-73
2021/06/02 11:14:14;;;;;;;;;11.25;10.25;;;;;34.97;33.37;100943.59;5031458;28;45272;-73
2021/06/02 11:16:58;;;;;;;;;11.25;11.25;;;;;34.83;33.80;100937.38;5033012;28;45347;-73
2021/06/02 11:19:26;;;;;;;;;15.50;11.75;;;;;34.55;34.04;100940.50;5033303;28;45698;-73
2021/06/02 11:21:54;;;;;;;;;12.25;10.75;;;;;34.18;34.41;100940.22;5033016;28;45354;-73
2021/06/02 11:24:32;;;;;;;;;11.75;11.75;;;;;34.01;35.01;100934.41;5032742;28;45394;-73
2021/06/02 11:27:13;;;;;;;;;13.00;11.00;;;;;33.78;35.08;100938.63;5032911;28;45453;-73
2021/06/02 11:29:44;;;;;;;;;10.00;10.00;;;;;33.57;35.37;100937.00;5019000;28;45729;-73
2021/06/02 11:32:21;;;;;;;;;15.00;13.00;;;;;33.54;35.28;100923.81;5032931;28;45429;-73
2021/06/02 11:34:54;;;;;;;;;11.50;11.50;;;;;33.63;35.33;100936.19;5033935;28;45431;-73
2021/06/02 11:37:22;;;;;;;;;14.00;12.00;;;;;33.46;36.27;100935.75;5031391;28;46281;-73
2021/06/02 11:39:54;;;;;;;;;11.00;10.25;;;;;33.54;36.14;100937.44;5031867;28;45790;-73
2021/06/02 11:42:42;;;;;;;;;12.00;12.00;;;;;33.43;35.66;100936.22;5030916;28;45542;-73
2021/06/02 11:45:16;;;;;;;;;8.00;8.00;;;;;33.43;36.03;100941.66;5022156;28;45382;-73
2021/06/02 11:47:44;;;;;;;;;9.00;9.00;;;;;33.47;35.80;100945.63;5031799;28;46232;-72
2021/06/02 11:50:11;;;;;;;;;11.00;10.50;;;;;33.52;35.80;100943.13;5029559;28;45489;-73